Time;durP1;ratioP1;P1;durP2;ratioP2;P2;SDS_P1;SDS_P2;PMS_P1;PMS_P2;Temp;Humidity;BMP_temperature;BMP_pressure;BME280_temperature;BME280_humidity;BME280_pressure;Samples;Min_cycle;Max_cycle;Signal;HPM_P1;HPM_P2
2024/03/28 00:00:46;;;;;;;;;;;;;;;16.07;56.58;98594.75;5029074;28;20016;-93
2024/03/28 00:03:12;;;;;;;;;;;;;;;16.06;56.39;98595.88;5035877;28;20397;-91
2024/03/28 00:05:38;;;;;;;;;;;;;;;16.06;56.51;98592.41;5034427;28;19921;-93
2024/03/28 00:08:06;;;;;;;;;;;;;;;16.01;56.70;98586.09;5045250;28;19917;-93
2024/03/28 00:10:31;;;;;;;;;;;;;;;15.98;56.78;98578.69;5040586;28;19923;-94
2024/03/28 00:12:56;;;;;;;;;;;;;;;15.97;56.71;98576.28;5030406;28;19980;-92
2024/03/28 00:15:24;;;;;;;;;;;;;;;15.95;56.92;98575.84;5029659;28;19923;-92
2024/03/28 00:17:50;;;;;;;;;;;;;;;15.91;56.97;98572.25;5036005;28;19951;-93
2024/03/28 00:20:17;;;;;;;;;;;;;;;15.88;57.33;98571.00;5036896;28;19970;-92
2024/03/28 00:22:45;;;;;;;;;;;;;;;15.86;57.41;98573.25;5030913;28;19921;-93
2024/03/28 00:27:49;;;;;;;;;;;;;;;15.82;57.51;98571.56;5133670;22;20317;-93
2024/03/28 00:30:15;;;;;;;;;;;;;;;15.79;57.72;98570.28;5032086;28;19928;-92
2024/03/28 00:32:40;;;;;;;;;;;;;;;15.77;58.01;98571.75;5034702;28;19940;-93
2024/03/28 00:35:05;;;;;;;;;;;;;;;15.76;57.96;98570.97;5032423;28;19921;-93
2024/03/28 00:37:31;;;;;;;;;;;;;;;15.75;57.72;98566.69;5044911;28;19917;-93
2024/03/28 00:39:56;;;;;;;;;;;;;;;15.73;57.77;98562.75;5033976;28;20377;-93
2024/03/28 00:42:21;;;;;;;;;;;;;;;15.71;57.86;98563.09;5025456;28;19917;-93
2024/03/28 00:44:47;;;;;;;;;;;;;;;15.68;58.16;98561.84;5032155;28;21636;-93
2024/03/28 00:47:12;;;;;;;;;;;;;;;15.67;58.19;98567.59;5031196;28;19921;-92
2024/03/28 00:49:37;;;;;;;;;;;;;;;15.66;58.33;98558.72;5027161;28;19921;-93
2024/03/28 00:52:02;;;;;;;;;;;;;;;15.67;58.35;98556.78;5029760;28;19932;-93
2024/03/28 00:54:27;;;;;;;;;;;;;;;15.69;58.40;98565.34;5030725;28;19924;-92
2024/03/28 00:56:53;;;;;;;;;;;;;;;15.67;58.58;98557.59;5027832;28;19914;-93
2024/03/28 00:59:18;;;;;;;;;;;;;;;15.68;58.46;98552.97;5030165;28;20277;-92
2024/03/28 01:01:43;;;;;;;;;;;;;;;15.68;58.49;98552.97;5034630;28;20039;-92
2024/03/28 01:04:08;;;;;;;;;;;;;;;15.68;58.47;98540.25;5034110;28;20396;-93
2024/03/28 01:06:33;;;;;;;;;;;;;;;15.68;58.61;98534.88;5029519;28;20398;-92
2024/03/28 01:08:59;;;;;;;;;;;;;;;15.67;58.81;98527.88;5025071;28;19921;-92
2024/03/28 01:11:24;;;;;;;;;;;;;;;15.66;58.82;98522.81;5031074;28;19971;-93
2024/03/28 01:13:49;;;;;;;;;;;;;;;15.62;58.99;98511.91;5030355;28;20059;-93
2024/03/28 01:16:14;;;;;;;;;;;;;;;15.59;59.05;98506.38;5026600;28;19917;-93
2024/03/28 01:18:40;;;;;;;;;;;;;;;15.57;58.87;98495.88;5027438;28;19970;-93
2024/03/28 01:21:05;;;;;;;;;;;;;;;15.55;59.19;98489.25;5031648;28;19920;-93
2024/03/28 01:23:30;;;;;;;;;;;;;;;15.54;59.10;98493.09;5030825;28;19963;-93
2024/03/28 01:25:56;;;;;;;;;;;;;;;15.52;59.09;98492.63;5034365;28;19971;-93
2024/03/28 01:28:21;;;;;;;;;;;;;;;15.48;59.47;98484.41;5042890;28;20191;-93
2024/03/28 01:30:46;;;;;;;;;;;;;;;15.45;59.48;98471.59;5021027;28;19928;-93
2024/03/28 01:33:12;;;;;;;;;;;;;;;15.42;59.38;98470.34;5023699;28;19922;-93
2024/03/28 01:35:37;;;;;;;;;;;;;;;15.40;59.53;98475.28;5031476;28;19971;-93
2024/03/28 01:38:02;;;;;;;;;;;;;;;15.37;59.49;98467.88;5033746;28;19960;-93
2024/03/28 01:40:27;;;;;;;;;;;;;;;15.37;59.92;98481.34;5033418;28;19928;-93
2024/03/28 01:43:01;;;;;;;;;;;;;;;15.35;59.84;98472.81;5032393;28;20020;-93
2024/03/28 01:45:26;;;;;;;;;;;;;;;15.34;59.93;98468.53;5032556;28;20040;-93
2024/03/28 01:47:52;;;;;;;;;;;;;;;15.33;60.12;98472.34;5029467;28;19987;-92
2024/03/28 01:50:17;;;;;;;;;;;;;;;15.34;60.19;98473.94;5029974;28;20562;-92
2024/03/28 01:52:42;;;;;;;;;;;;;;;15.33;59.96;98475.06;5033154;28;19917;-92
2024/03/28 01:55:08;;;;;;;;;;;;;;;15.33;59.94;98477.75;5032596;28;19913;-93
2024/03/28 01:57:33;;;;;;;;;;;;;;;15.30;60.16;98473.03;5030594;28;19924;-93
2024/03/28 01:59:58;;;;;;;;;;;;;;;15.29;59.98;98478.75;5033332;28;19921;-93
2024/03/28 02:02:24;;;;;;;;;;;;;;;15.26;60.90;98465.91;5029333;28;19917;-92
2024/03/28 02:04:50;;;;;;;;;;;;;;;15.23;60.42;98470.06;5031441;28;19917;-93
2024/03/28 02:07:15;;;;;;;;;;;;;;;15.21;60.77;98458.06;5031744;28;19924;-93
2024/03/28 02:09:41;;;;;;;;;;;;;;;15.19;61.00;98461.09;5026999;28;19931;-93
2024/03/28 02:12:06;;;;;;;;;;;;;;;15.17;60.95;98466.03;5030714;28;19928;-93
2024/03/28 02:14:31;;;;;;;;;;;;;;;15.15;60.98;98459.41;5029174;28;19913;-94
2024/03/28 02:17:03;;;;;;;;;;;;;;;15.13;61.21;98451.63;5028320;28;19917;-93
2024/03/28 02:19:28;;;;;;;;;;;;;;;15.11;61.02;98456.56;5029726;28;20604;-93
2024/03/28 02:21:53;;;;;;;;;;;;;;;15.10;61.06;98457.69;5027431;28;20030;-93
2024/03/28 02:24:18;;;;;;;;;;;;;;;15.06;61.67;98445.97;5023126;28;19983;-93
2024/03/28 02:26:44;;;;;;;;;;;;;;;15.03;61.52;98438.56;5027456;28;19917;-93
2024/03/28 02:29:09;;;;;;;;;;;;;;;15.01;61.69;98438.09;5028430;28;19924;-93
2024/03/28 02:31:34;;;;;;;;;;;;;;;14.98;61.65;98436.09;5030676;28;19917;-93
2024/03/28 02:33:59;;;;;;;;;;;;;;;14.97;61.80;98439.91;5030399;28;19994;-93
2024/03/28 02:36:24;;;;;;;;;;;;;;;14.95;61.98;98434.06;5023323;28;19945;-93
2024/03/28 02:38:50;;;;;;;;;;;;;;;14.94;61.87;98427.88;5028924;28;19917;-93
2024/03/28 02:41:18;;;;;;;;;;;;;;;14.93;61.89;98430.91;5031018;28;19913;-94
2024/03/28 02:43:43;;;;;;;;;;;;;;;14.91;61.98;98416.97;5028514;28;19939;-93
2024/03/28 02:46:09;;;;;;;;;;;;;;;14.90;62.10;98421.59;5020095;28;20484;-93
2024/03/28 02:48:34;;;;;;;;;;;;;;;14.91;61.83;98419.66;5019668;28;19929;-93
2024/03/28 02:50:59;;;;;;;;;;;;;;;14.91;62.16;98423.16;5026245;28;19917;-92
2024/03/28 02:53:24;;;;;;;;;;;;;;;14.91;62.30;98420.47;5029593;28;19922;-93
2024/03/28 02:55:50;;;;;;;;;;;;;;;14.89;62.21;98428.06;5027453;28;19959;-93
2024/03/28 02:58:16;;;;;;;;;;;;;;;14.89;62.51;98432.66;5025434;28;19917;-93
2024/03/28 03:00:42;;;;;;;;;;;;;;;14.88;62.33;98431.09;5029412;28;19921;-93
2024/03/28 03:03:07;;;;;;;;;;;;;;;14.88;62.43;98423.00;5031027;28;20557;-92
2024/03/28 03:05:32;;;;;;;;;;;;;;;14.85;62.60;98418.28;5026507;28;19928;-92
2024/03/28 03:07:57;;;;;;;;;;;;;;;14.82;62.45;98409.75;5028196;28;19940;-92
2024/03/28 03:10:22;;;;;;;;;;;;;;;14.79;62.71;98409.63;5026623;28;19925;-93
2024/03/28 03:12:48;;;;;;;;;;;;;;;14.80;62.76;98411.22;5032689;28;20439;-93
2024/03/28 03:15:13;;;;;;;;;;;;;;;14.78;62.85;98405.34;5027695;28;20377;-92
2024/03/28 03:17:38;;;;;;;;;;;;;;;14.76;63.47;98408.41;5031386;28;19917;-92
2024/03/28 03:20:07;;;;;;;;;;;;;;;14.77;62.97;98406.47;5027643;28;19917;-93
2024/03/28 03:22:33;;;;;;;;;;;;;;;14.76;62.71;98408.41;5030093;28;19917;-93
2024/03/28 03:24:58;;;;;;;;;;;;;;;14.75;63.05;98397.94;5027076;28;20427;-92
2024/03/28 03:27:32;;;;;;;;;;;;;;;14.74;62.96;98397.16;5029600;28;19921;-93
2024/03/28 03:35:27;;;;;;;;;;;;;;;14.66;63.50;98389.94;5026406;28;19983;-93
2024/03/28 03:37:52;;;;;;;;;;;;;;;14.68;63.40;98400.38;5026390;28;19947;-93
2024/03/28 03:40:17;;;;;;;;;;;;;;;14.66;63.54;98395.31;5024837;28;19964;-93
2024/03/28 03:42:42;;;;;;;;;;;;;;;14.66;63.51;98384.53;5026544;28;19917;-90
2024/03/28 03:45:08;;;;;;;;;;;;;;;14.64;63.71;98383.28;5024845;28;19925;-93
2024/03/28 03:47:33;;;;;;;;;;;;;;;14.62;63.68;98375.53;5028734;28;19913;-93
2024/03/28 03:49:58;;;;;;;;;;;;;;;14.61;63.70;98384.75;5029681;28;19917;-93
2024/03/28 03:52:23;;;;;;;;;;;;;;;14.60;63.88;98387.78;5028424;28;19917;-93
2024/03/28 03:54:49;;;;;;;;;;;;;;;14.58;63.98;98392.72;5028443;28;19956;-92
2024/03/28 03:57:14;;;;;;;;;;;;;;;14.53;64.31;98372.13;5030149;28;19918;-93
2024/03/28 03:59:40;;;;;;;;;;;;;;;14.50;64.48;98365.50;5027091;28;19924;-93
2024/03/28 04:02:05;;;;;;;;;;;;;;;14.48;64.50;98365.06;5024262;28;19917;-92
2024/03/28 04:04:31;;;;;;;;;;;;;;;14.45;64.75;98354.16;5022384;28;19917;-92
2024/03/28 04:06:56;;;;;;;;;;;;;;;14.45;64.57;98354.16;5027455;28;19917;-92
2024/03/28 04:09:22;;;;;;;;;;;;;;;14.44;64.83;98344.50;5026959;28;20004;-93
2024/03/28 04:11:48;;;;;;;;;;;;;;;14.44;64.91;98341.81;5032099;28;19988;-93
2024/03/28 04:14:13;;;;;;;;;;;;;;;14.44;65.14;98339.91;5030973;28;19998;-93
2024/03/28 04:16:39;;;;;;;;;;;;;;;14.44;64.97;98342.59;5034325;28;20357;-93
2024/03/28 04:19:05;;;;;;;;;;;;;;;14.42;65.35;98341.31;5031073;28;19925;-93
2024/03/28 04:21:30;;;;;;;;;;;;;;;14.43;64.91;98342.91;5035526;28;20436;-93
2024/03/28 04:23:58;;;;;;;;;;;;;;;14.41;65.43;98334.34;5033949;28;20340;-93
2024/03/28 04:26:23;;;;;;;;;;;;;;;14.41;65.29;98334.34;5034834;28;20402;-93
2024/03/28 04:28:49;;;;;;;;;;;;;;;14.40;65.51;98335.47;5028872;28;20023;-92
2024/03/28 04:31:14;;;;;;;;;;;;;;;14.38;65.97;98327.72;5030456;28;20020;-93
2024/03/28 04:33:39;;;;;;;;;;;;;;;14.38;65.32;98333.13;5031102;28;20417;-92
2024/03/28 04:36:05;;;;;;;;;;;;;;;14.35;65.66;98338.34;5030387;28;19983;-92
2024/03/28 04:38:31;;;;;;;;;;;;;;;14.32;66.09;98345.19;5032815;28;19921;-92
2024/03/28 04:40:56;;;;;;;;;;;;;;;14.31;66.02;98340.16;5035196;28;19917;-94
2024/03/28 04:43:22;;;;;;;;;;;;;;;14.30;66.36;98333.19;5031493;28;19932;-92
2024/03/28 04:45:48;;;;;;;;;;;;;;;14.29;66.56;98331.59;5034084;28;19976;-93
2024/03/28 04:48:13;;;;;;;;;;;;;;;14.27;66.47;98329.25;5029542;28;19917;-93
2024/03/28 04:50:38;;;;;;;;;;;;;;;14.25;66.53;98326.09;5033055;28;20280;-92
2024/03/28 04:53:04;;;;;;;;;;;;;;;14.23;67.00;98319.47;5031208;28;20300;-91
2024/03/28 04:55:29;;;;;;;;;;;;;;;14.23;66.43;98319.47;5031392;28;19917;-93
2024/03/28 04:57:54;;;;;;;;;;;;;;;14.21;66.79;98323.28;5032753;28;19950;-92
2024/03/28 05:00:20;;;;;;;;;;;;;;;14.17;67.17;98326.94;5030511;28;19933;-93
2024/03/28 05:02:45;;;;;;;;;;;;;;;14.16;67.12;98314.59;5031812;28;19986;-92
2024/03/28 05:05:11;;;;;;;;;;;;;;;14.12;67.82;98321.78;5027529;28;20027;-93
2024/03/28 05:07:36;;;;;;;;;;;;;;;14.13;67.46;98317.97;5029013;28;19917;-93
2024/03/28 05:10:04;;;;;;;;;;;;;;;14.15;67.68;98321.13;5028606;28;19921;-95
2024/03/28 05:12:29;;;;;;;;;;;;;;;14.17;67.70;98318.88;5023993;28;19918;-93
2024/03/28 05:14:57;;;;;;;;;;;;;;;14.16;67.54;98318.09;5028953;28;19986;-93
2024/03/28 05:17:22;;;;;;;;;;;;;;;14.17;67.95;98318.88;5025771;28;20817;-93
2024/03/28 05:19:47;;;;;;;;;;;;;;;14.17;67.78;98326.94;5029736;28;20019;-93
2024/03/28 05:22:13;;;;;;;;;;;;;;;14.14;67.84;98336.47;5026428;28;19925;-93
2024/03/28 05:24:39;;;;;;;;;;;;;;;14.11;67.97;98337.16;5029050;28;19921;-93
2024/03/28 05:27:05;;;;;;;;;;;;;;;14.11;68.49;98342.53;5025279;28;20051;-94
2024/03/28 05:29:30;;;;;;;;;;;;;;;14.13;68.74;98339.50;5029787;28;20012;-93
2024/03/28 05:31:55;;;;;;;;;;;;;;;14.14;68.81;98330.31;5029176;28;19924;-93
2024/03/28 05:34:21;;;;;;;;;;;;;;;14.17;68.96;98326.94;5027625;28;19917;-93
2024/03/28 05:36:46;;;;;;;;;;;;;;;14.21;68.79;98330.59;5032681;28;19925;-93
2024/03/28 05:39:14;;;;;;;;;;;;;;;14.23;68.97;98322.16;5031887;28;19925;-93
2024/03/28 05:41:39;;;;;;;;;;;;;;;14.24;69.21;98329.91;5026691;28;19936;-93
2024/03/28 05:44:04;;;;;;;;;;;;;;;14.27;69.06;98336.53;5032307;28;20525;-93
2024/03/28 05:46:29;;;;;;;;;;;;;;;14.31;68.96;98332.06;5028469;28;20459;-93
2024/03/28 05:48:55;;;;;;;;;;;;;;;14.32;70.05;98336.34;5028461;28;19917;-92
2024/03/28 05:51:20;;;;;;;;;;;;;;;14.36;69.07;98334.53;5026669;28;19917;-93
2024/03/28 05:53:48;;;;;;;;;;;;;;;14.37;69.43;98338.84;5030798;28;19913;-93
2024/03/28 05:56:14;;;;;;;;;;;;;;;14.41;69.50;98342.44;5027568;28;19963;-93
2024/03/28 05:58:39;;;;;;;;;;;;;;;14.43;69.59;98337.50;5026113;28;19925;-93
2024/03/28 06:01:04;;;;;;;;;;;;;;;14.46;69.48;98343.03;5027116;28;19917;-92
2024/03/28 06:03:30;;;;;;;;;;;;;;;14.49;69.60;98346.97;5027148;28;19931;-90
2024/03/28 06:05:55;;;;;;;;;;;;;;;14.51;69.76;98340.13;5029468;28;19925;-92
2024/03/28 06:08:20;;;;;;;;;;;;;;;14.54;69.84;98340.59;5025700;28;19917;-93
2024/03/28 06:10:45;;;;;;;;;;;;;;;14.55;70.52;98326.81;5032801;28;19917;-90
2024/03/28 06:13:10;;;;;;;;;;;;;;;14.60;69.78;98331.97;5027716;28;20427;-92
2024/03/28 06:15:36;;;;;;;;;;;;;;;14.62;70.42;98335.13;5024414;28;19917;-92
2024/03/28 06:18:01;;;;;;;;;;;;;;;14.62;70.41;98332.44;5029239;28;20352;-92
2024/03/28 06:20:26;;;;;;;;;;;;;;;14.62;72.41;98328.94;5029329;28;20390;-91
2024/03/28 06:22:51;;;;;;;;;;;;;;;14.63;71.61;98344.78;5044894;28;19921;-92
2024/03/28 06:25:17;;;;;;;;;;;;;;;14.67;71.15;98343.00;5025051;28;19944;-92
2024/03/28 06:27:42;;;;;;;;;;;;;;;14.68;71.25;98349.16;5030832;28;20377;-92
2024/03/28 06:30:07;;;;;;;;;;;;;;;14.70;71.20;98358.50;5032998;28;20004;-91
2024/03/28 06:32:33;;;;;;;;;;;;;;;14.70;71.40;98374.66;5029025;28;19924;-91
2024/03/28 06:34:58;;;;;;;;;;;;;;;14.70;71.67;98374.66;5028889;28;19917;-91
2024/03/28 06:37:24;;;;;;;;;;;;;;;14.70;72.42;98377.34;5029908;28;19968;-91
2024/03/28 06:39:49;;;;;;;;;;;;;;;14.70;73.00;98381.97;5026361;28;20714;-91
2024/03/28 06:42:15;;;;;;;;;;;;;;;14.70;72.48;98388.13;5030448;28;19913;-91
2024/03/28 06:44:43;;;;;;;;;;;;;;;14.72;72.45;98393.19;5028102;28;20495;-92
2024/03/28 06:47:09;;;;;;;;;;;;;;;14.73;72.52;98394.78;5030116;28;19940;-92
2024/03/28 06:49:34;;;;;;;;;;;;;;;14.76;72.67;98416.47;5032324;28;20541;-92
2024/03/28 06:51:59;;;;;;;;;;;;;;;14.71;73.11;98395.09;5028284;28;20416;-91
2024/03/28 06:54:24;;;;;;;;;;;;;;;14.69;73.43;98408.13;5027879;28;19913;-91
2024/03/28 06:56:50;;;;;;;;;;;;;;;14.65;73.93;98404.53;5031952;28;20008;-90
2024/03/28 06:59:15;;;;;;;;;;;;;;;14.61;74.33;98405.53;5027757;28;20065;-91
2024/03/28 07:01:43;;;;;;;;;;;;;;;14.55;75.15;98394.16;5038154;28;19913;-92
2024/03/28 07:04:08;;;;;;;;;;;;;;;14.57;74.92;98413.50;5025073;28;19917;-91
2024/03/28 07:06:35;;;;;;;;;;;;;;;14.61;74.54;98403.63;5027864;28;19928;-92
2024/03/28 07:09:00;;;;;;;;;;;;;;;14.62;75.45;98393.63;5031648;28;20428;-92
2024/03/28 07:11:25;;;;;;;;;;;;;;;14.68;74.53;98411.94;5026227;28;19917;-92
2024/03/28 07:13:51;;;;;;;;;;;;;;;14.66;74.80;98416.88;5031899;28;19917;-91
2024/03/28 07:16:16;;;;;;;;;;;;;;;14.69;74.64;98405.44;5020716;28;19921;-93
2024/03/28 07:18:41;;;;;;;;;;;;;;;14.71;74.78;98426.66;5024910;28;19928;-90
2024/03/28 07:21:07;;;;;;;;;;;;;;;14.71;74.61;98423.97;5023920;28;19961;-90
2024/03/28 07:23:32;;;;;;;;;;;;;;;14.69;74.92;98437.78;5030087;28;19928;-91
2024/03/28 07:25:58;;;;;;;;;;;;;;;14.65;74.60;98441.47;5023273;28;19929;-91
2024/03/28 07:28:23;;;;;;;;;;;;;;;14.54;75.26;98441.06;5030169;28;20794;-91
2024/03/28 07:30:48;;;;;;;;;;;;;;;14.48;75.60;98439.69;5028263;28;19914;-91
2024/03/28 07:33:13;;;;;;;;;;;;;;;14.41;76.12;98448.28;5028342;28;20519;-91
2024/03/28 07:35:38;;;;;;;;;;;;;;;14.42;75.94;98463.34;5031999;28;19917;-90
2024/03/28 07:38:04;;;;;;;;;;;;;;;14.42;75.86;98473.31;5027216;28;20373;-90
2024/03/28 07:40:29;;;;;;;;;;;;;;;14.40;75.59;98472.88;5029654;28;19917;-91
2024/03/28 07:42:54;;;;;;;;;;;;;;;14.35;75.41;98479.22;5026113;28;20281;-91
2024/03/28 07:45:20;;;;;;;;;;;;;;;14.31;75.41;98474.81;5030388;28;19921;-91
2024/03/28 07:47:45;;;;;;;;;;;;;;;14.26;75.76;98472.31;5031963;28;19924;-91
2024/03/28 07:50:11;;;;;;;;;;;;;;;14.29;75.45;98477.06;5034749;28;19917;-91
2024/03/28 07:52:37;;;;;;;;;;;;;;;14.28;74.93;98478.19;5029434;28;19921;-90
2024/03/28 07:55:03;;;;;;;;;;;;;;;14.23;74.99;98470.28;5035683;28;19960;-91
2024/03/28 07:57:28;;;;;;;;;;;;;;;14.17;74.95;98475.84;5033209;28;19920;-90
2024/03/28 07:59:53;;;;;;;;;;;;;;;14.16;74.74;98489.66;5029662;28;19917;-88
2024/03/28 08:02:19;;;;;;;;;;;;;;;14.12;74.63;98481.44;5033423;28;20300;-90
2024/03/28 08:04:44;;;;;;;;;;;;;;;14.10;74.55;98494.44;5035413;28;19921;-91
2024/03/28 08:07:09;;;;;;;;;;;;;;;14.08;74.67;98493.19;5032483;28;19924;-90
2024/03/28 08:09:34;;;;;;;;;;;;;;;14.04;74.49;98495.75;5032104;28;19922;-90
2024/03/28 08:12:07;;;;;;;;;;;;;;;13.98;74.42;98499.72;5034859;28;20457;-90
2024/03/28 08:14:33;;;;;;;;;;;;;;;13.94;74.61;98498.00;5031033;28;19917;-90
2024/03/28 08:17:00;;;;;;;;;;;;;;;13.94;74.54;98498.81;5029798;28;19918;-89
2024/03/28 08:19:25;;;;;;;;;;;;;;;13.93;74.17;98518.75;5028975;28;19925;-90
2024/03/28 08:21:51;;;;;;;;;;;;;;;13.88;74.93;98527.03;5033709;28;19970;-90
2024/03/28 08:24:19;;;;;;;;;;;;;;;13.87;74.78;98528.94;5047542;28;19949;-90
2024/03/28 08:26:44;;;;;;;;;;;;;;;13.87;74.94;98536.22;5028026;28;19925;-90
2024/03/28 08:29:10;;;;;;;;;;;;;;;13.87;74.74;98537.00;5026068;28;19925;-90
2024/03/28 08:31:36;;;;;;;;;;;;;;;13.80;75.10;98541.28;5034228;28;19925;-90
2024/03/28 08:34:01;;;;;;;;;;;;;;;13.80;75.48;98546.69;5029825;28;19940;-89
2024/03/28 08:36:27;;;;;;;;;;;;;;;13.74;75.65;98547.97;5034229;28;20320;-90
2024/03/28 08:38:52;;;;;;;;;;;;;;;13.69;76.07;98553.53;5028373;28;19921;-89
2024/03/28 08:41:17;;;;;;;;;;;;;;;13.66;76.82;98563.06;5031758;28;19917;-89
2024/03/28 08:43:48;;;;;;;;;;;;;;;13.69;76.68;98554.31;5034359;28;20385;-89
2024/03/28 08:46:13;;;;;;;;;;;;;;;13.69;76.73;98558.91;5034537;28;19921;-89
2024/03/28 08:48:43;;;;;;;;;;;;;;;13.66;76.72;98559.56;5025798;28;19964;-90
2024/03/28 08:51:08;;;;;;;;;;;;;;;13.68;76.43;98552.75;5033502;28;20570;-90
2024/03/28 08:53:33;;;;;;;;;;;;;;;13.67;76.88;98548.47;5032133;28;19921;-89
2024/03/28 08:56:00;;;;;;;;;;;;;;;13.65;77.00;98549.91;5033954;28;20385;-91
2024/03/28 08:58:25;;;;;;;;;;;;;;;13.64;77.49;98549.09;5033190;28;20000;-90
2024/03/28 09:00:51;;;;;;;;;;;;;;;13.64;77.31;98554.47;5027743;28;19979;-90
2024/03/28 09:03:16;;;;;;;;;;;;;;;13.64;77.71;98545.63;5033792;28;19921;-90
2024/03/28 09:05:42;;;;;;;;;;;;;;;13.65;77.94;98555.31;5035041;28;20404;-90
2024/03/28 09:08:10;;;;;;;;;;;;;;;13.58;77.71;98578.09;5034267;28;19917;-90
2024/03/28 09:10:35;;;;;;;;;;;;;;;13.52;77.59;98579.38;5047631;28;20587;-90
2024/03/28 09:13:00;;;;;;;;;;;;;;;13.46;77.40;98558.31;5033719;28;20039;-90
2024/03/28 09:15:25;;;;;;;;;;;;;;;13.39;77.81;98550.75;5027564;28;19917;-91
2024/03/28 09:17:51;;;;;;;;;;;;;;;13.41;77.62;98551.22;5033418;28;19956;-91
2024/03/28 09:20:16;;;;;;;;;;;;;;;13.44;77.58;98563.25;5032651;28;20408;-89
2024/03/28 09:22:42;;;;;;;;;;;;;;;13.43;77.55;98559.75;5034030;28;20444;-89
2024/03/28 09:25:09;;;;;;;;;;;;;;;13.47;77.36;98554.56;5030473;28;19925;-90
2024/03/28 09:27:34;;;;;;;;;;;;;;;13.46;76.90;98552.94;5034207;28;19917;-89
2024/03/28 09:30:00;;;;;;;;;;;;;;;13.49;76.47;98552.31;5027423;28;19918;-89
2024/03/28 09:32:26;;;;;;;;;;;;;;;13.52;76.18;98565.91;5031587;28;19959;-90
2024/03/28 09:34:51;;;;;;;;;;;;;;;13.50;75.70;98578.13;5033858;28;19924;-90
2024/03/28 09:37:17;;;;;;;;;;;;;;;13.47;75.33;98594.91;5031179;28;20396;-90
2024/03/28 09:39:46;;;;;;;;;;;;;;;13.42;75.39;98611.19;5030444;28;19925;-90
2024/03/28 09:42:12;;;;;;;;;;;;;;;13.38;75.48;98608.34;5032969;28;20373;-90
2024/03/28 09:44:37;;;;;;;;;;;;;;;13.37;75.02;98616.75;5031165;28;19932;-89
2024/03/28 09:47:03;;;;;;;;;;;;;;;13.34;74.80;98620.06;5033075;28;20415;-90
2024/03/28 09:49:29;;;;;;;;;;;;;;;13.30;74.89;98623.41;5029541;28;19921;-90
2024/03/28 09:51:56;;;;;;;;;;;;;;;13.33;75.22;98635.41;5033496;28;19917;-89
2024/03/28 09:54:22;;;;;;;;;;;;;;;13.36;75.34;98624.03;5031308;28;19920;-90
2024/03/28 09:56:47;;;;;;;;;;;;;;;13.43;74.79;98643.16;5027166;28;19917;-90
2024/03/28 09:59:12;;;;;;;;;;;;;;;13.43;73.83;98659.28;5030376;28;20377;-90
2024/03/28 10:01:40;;;;;;;;;;;;;;;13.38;73.58;98672.91;5030451;28;20008;-89
2024/03/28 10:04:15;;;;;;;;;;;;;;;13.30;73.93;98665.63;5032117;28;19924;-90
2024/03/28 10:06:47;;;;;;;;;;;;;;;13.26;74.15;98660.06;5029704;28;19949;-90
2024/03/28 10:09:13;;;;;;;;;;;;;;;13.29;74.65;98664.06;5025500;28;19913;-90
2024/03/28 10:11:41;;;;;;;;;;;;;;;13.38;74.06;98664.03;5047182;28;19918;-90
2024/03/28 10:14:14;;;;;;;;;;;;;;;13.38;73.85;98661.34;5032587;28;19924;-90
2024/03/28 10:16:41;;;;;;;;;;;;;;;13.36;73.58;98650.91;5024945;28;20142;-89
2024/03/28 10:19:06;;;;;;;;;;;;;;;13.32;73.35;98671.50;5032368;28;19917;-90
2024/03/28 10:21:32;;;;;;;;;;;;;;;13.27;73.47;98668.94;5030871;28;19958;-90
2024/03/28 10:23:57;;;;;;;;;;;;;;;13.20;73.57;98668.63;5047560;28;20488;-90
2024/03/28 10:26:22;;;;;;;;;;;;;;;13.19;74.07;98669.72;5029855;28;19932;-89
2024/03/28 10:28:47;;;;;;;;;;;;;;;13.22;73.91;98663.72;5025627;28;20023;-90
2024/03/28 10:31:21;;;;;;;;;;;;;;;13.19;73.80;98656.28;5031558;28;19924;-89
2024/03/28 10:33:49;;;;;;;;;;;;;;;13.19;73.35;98700.09;5032124;28;19921;-90
2024/03/28 10:36:20;;;;;;;;;;;;;;;13.19;73.29;98726.19;5032408;28;19940;-90
2024/03/28 10:38:45;;;;;;;;;;;;;;;13.12;73.01;98736.59;5031071;28;19997;-90
2024/03/28 10:41:12;;;;;;;;;;;;;;;13.13;72.76;98740.88;5029465;28;20369;-89
2024/03/28 10:43:38;;;;;;;;;;;;;;;13.11;72.75;98735.81;5031490;28;19921;-88
2024/03/28 10:46:11;;;;;;;;;;;;;;;13.13;72.44;98735.50;5029950;28;19943;-89
2024/03/28 10:48:40;;;;;;;;;;;;;;;13.10;72.59;98749.53;5028385;28;21261;-88
2024/03/28 10:51:05;;;;;;;;;;;;;;;13.14;72.42;98737.09;5029935;28;20021;-88
2024/03/28 10:53:39;;;;;;;;;;;;;;;13.19;72.77;98715.44;5028983;28;19970;-89
2024/03/28 10:56:17;;;;;;;;;;;;;;;13.24;72.04;98720.66;5032375;28;19917;-90
2024/03/28 10:58:43;;;;;;;;;;;;;;;13.27;72.08;98723.50;5046182;28;19921;-90
2024/03/28 11:01:12;;;;;;;;;;;;;;;13.32;72.20;98729.88;5032614;28;19920;-89
2024/03/28 11:03:38;;;;;;;;;;;;;;;13.43;72.02;98728.44;5031928;28;20356;-90
2024/03/28 11:06:04;;;;;;;;;;;;;;;13.56;72.05;98725.59;5031525;28;19925;-91
2024/03/28 11:08:31;;;;;;;;;;;;;;;13.71;71.63;98718.16;5028884;28;19928;-90
2024/03/28 11:10:58;;;;;;;;;;;;;;;13.91;71.37;98714.81;5030458;28;19952;-89
2024/03/28 11:13:23;;;;;;;;;;;;;;;14.11;70.94;98713.34;5028452;28;19917;-90
2024/03/28 11:15:59;;;;;;;;;;;;;;;14.30;69.90;98718.38;5031169;28;19952;-90
2024/03/28 11:18:25;;;;;;;;;;;;;;;14.32;68.38;98714.22;5030458;28;19944;-90
2024/03/28 11:20:50;;;;;;;;;;;;;;;14.32;68.05;98721.53;5029271;28;20008;-90
2024/03/28 11:23:15;;;;;;;;;;;;;;;14.34;67.78;98713.91;5028573;28;20479;-90
2024/03/28 11:25:46;;;;;;;;;;;;;;;14.36;68.15;98725.97;5050331;28;19947;-90
2024/03/28 11:28:11;;;;;;;;;;;;;;;14.40;67.17;98734.19;5030213;28;19917;-90
2024/03/28 11:30:38;;;;;;;;;;;;;;;14.37;66.80;98724.06;5028690;28;19925;-90
2024/03/28 11:33:04;;;;;;;;;;;;;;;14.40;65.90;98718.81;5029197;28;20405;-89
2024/03/28 11:35:29;;;;;;;;;;;;;;;14.43;66.23;98720.91;5029757;28;19992;-89
2024/03/28 11:38:04;;;;;;;;;;;;;;;14.56;66.14;98729.09;5031582;28;20011;-90
2024/03/28 11:40:29;;;;;;;;;;;;;;;14.65;64.98;98737.94;5028477;28;20012;-89
2024/03/28 11:43:06;;;;;;;;;;;;;;;14.65;64.66;98749.50;5030269;28;19948;-90
2024/03/28 11:45:31;;;;;;;;;;;;;;;14.66;64.39;98756.47;5029018;28;19979;-91
2024/03/28 11:48:01;;;;;;;;;;;;;;;14.74;65.25;98765.66;5026993;28;19925;-91
2024/03/28 11:50:27;;;;;;;;;;;;;;;14.80;64.57;98759.75;5029784;28;19921;-91
2024/03/28 11:52:52;;;;;;;;;;;;;;;14.84;64.62;98759.88;5031190;28;20016;-91
2024/03/28 11:55:18;;;;;;;;;;;;;;;14.86;63.84;98770.34;5031382;28;19913;-91
2024/03/28 11:57:43;;;;;;;;;;;;;;;14.88;63.67;98770.81;5029474;28;19923;-89
2024/03/28 12:00:08;;;;;;;;;;;;;;;14.86;63.14;98765.75;5029926;28;19940;-91
2024/03/28 12:02:33;;;;;;;;;;;;;;;14.89;62.80;98775.09;5028824;28;19917;-90
2024/03/28 12:05:05;;;;;;;;;;;;;;;14.93;62.35;98776.03;5030985;28;20332;-90
2024/03/28 12:07:30;;;;;;;;;;;;;;;14.98;62.18;98771.25;5028326;28;19941;-90
2024/03/28 12:09:55;;;;;;;;;;;;;;;15.01;61.63;98781.38;5031065;28;19913;-90
2024/03/28 12:12:20;;;;;;;;;;;;;;;15.03;61.68;98772.97;5027308;28;19917;-90
2024/03/28 12:14:45;;;;;;;;;;;;;;;15.11;61.03;98777.53;5031308;28;19917;-91
2024/03/28 12:17:11;;;;;;;;;;;;;;;15.18;61.61;98783.19;5031357;28;19948;-90
2024/03/28 12:19:37;;;;;;;;;;;;;;;15.32;61.22;98781.06;5030917;28;19971;-90
2024/03/28 12:22:03;;;;;;;;;;;;;;;15.55;61.31;98794.25;5028636;28;19957;-90
2024/03/28 12:24:28;;;;;;;;;;;;;;;15.81;61.13;98788.69;5028629;28;19952;-90
2024/03/28 12:26:55;;;;;;;;;;;;;;;16.06;60.13;98784.19;5028819;28;19921;-90
2024/03/28 12:29:24;;;;;;;;;;;;;;;16.21;58.81;98802.50;5027945;28;19920;-90
2024/03/28 12:31:49;;;;;;;;;;;;;;;16.30;58.35;98801.28;5027959;28;19990;-90
2024/03/28 12:34:15;;;;;;;;;;;;;;;16.19;56.92;98816.34;5031303;28;19944;-90
2024/03/28 12:36:40;;;;;;;;;;;;;;;16.17;56.97;98831.31;5034674;28;19927;-90
2024/03/28 12:39:06;;;;;;;;;;;;;;;16.35;57.06;98831.94;5033177;28;20388;-91
2024/03/28 12:41:31;;;;;;;;;;;;;;;16.46;55.42;98844.69;5031795;28;19914;-89
2024/03/28 12:43:57;;;;;;;;;;;;;;;16.54;55.70;98876.25;5034575;28;19921;-90
2024/03/28 12:46:22;;;;;;;;;;;;;;;16.58;54.71;98854.75;5032624;28;20071;-88
2024/03/28 12:48:47;;;;;;;;;;;;;;;16.56;53.97;98848.91;5034010;28;19924;-90